sensor_id;sensor_type;location;lat;lon;timestamp;pressure;altitude;pressure_sealevel;temperature;humidity
6423;BME280;3244;42.708;23.288;2023-04-27T00:00:00;94733.81;;;11.01;49.53
6423;BME280;3244;42.708;23.288;2023-04-27T00:02:31;94740.94;;;10.93;49.76
6423;BME280;3244;42.708;23.288;2023-04-27T00:04:58;94734.56;;;10.82;50.17
6423;BME280;3244;42.708;23.288;2023-04-27T00:07:24;94735.22;;;10.66;50.11
6423;BME280;3244;42.708;23.288;2023-04-27T00:09:51;94742.91;;;10.64;50.54
6423;BME280;3244;42.708;23.288;2023-04-27T00:12:18;94739.91;;;10.54;50.55
6423;BME280;3244;42.708;23.288;2023-04-27T00:14:45;94748.53;;;10.50;51.02
6423;BME280;3244;42.708;23.288;2023-04-27T00:17:13;94744.28;;;10.51;51.25
6423;BME280;3244;42.708;23.288;2023-04-27T00:19:40;94744.31;;;10.49;51.38
6423;BME280;3244;42.708;23.288;2023-04-27T00:22:06;94752.00;;;10.48;50.80
6423;BME280;3244;42.708;23.288;2023-04-27T00:24:33;94752.88;;;10.47;51.36
6423;BME280;3244;42.708;23.288;2023-04-27T00:27:00;94753.13;;;10.41;51.57
6423;BME280;3244;42.708;23.288;2023-04-27T00:29:27;94751.22;;;10.24;51.16
6423;BME280;3244;42.708;23.288;2023-04-27T00:31:54;94749.75;;;10.17;51.75
6423;BME280;3244;42.708;23.288;2023-04-27T00:34:22;94750.72;;;10.14;52.12
6423;BME280;3244;42.708;23.288;2023-04-27T00:36:48;94744.19;;;10.07;51.69
6423;BME280;3244;42.708;23.288;2023-04-27T00:39:15;94750.31;;;10.02;51.80
6423;BME280;3244;42.708;23.288;2023-04-27T00:41:42;94749.72;;;9.95;51.65
6423;BME280;3244;42.708;23.288;2023-04-27T00:44:09;94751.38;;;9.96;52.13
6423;BME280;3244;42.708;23.288;2023-04-27T00:46:35;94755.13;;;9.86;52.38
6423;BME280;3244;42.708;23.288;2023-04-27T00:49:03;94744.97;;;9.86;52.77
6423;BME280;3244;42.708;23.288;2023-04-27T00:51:31;94753.22;;;9.91;52.73
6423;BME280;3244;42.708;23.288;2023-04-27T00:53:58;94754.88;;;9.92;52.25
6423;BME280;3244;42.708;23.288;2023-04-27T00:56:26;94753.59;;;9.82;52.18
6423;BME280;3244;42.708;23.288;2023-04-27T00:58:52;94755.25;;;9.83;52.94
6423;BME280;3244;42.708;23.288;2023-04-27T01:01:19;94746.50;;;9.90;52.48
6423;BME280;3244;42.708;23.288;2023-04-27T01:03:46;94757.97;;;9.77;52.11
6423;BME280;3244;42.708;23.288;2023-04-27T01:06:13;94758.03;;;9.75;52.48
6423;BME280;3244;42.708;23.288;2023-04-27T01:08:41;94756.91;;;9.84;52.52
6423;BME280;3244;42.708;23.288;2023-04-27T01:11:07;94761.25;;;9.80;52.66
6423;BME280;3244;42.708;23.288;2023-04-27T01:13:34;94768.09;;;9.78;52.75
6423;BME280;3244;42.708;23.288;2023-04-27T01:16:01;94762.59;;;9.66;52.83
6423;BME280;3244;42.708;23.288;2023-04-27T01:18:28;94773.81;;;9.60;52.88
6423;BME280;3244;42.708;23.288;2023-04-27T01:20:54;94766.44;;;9.52;53.27
6423;BME280;3244;42.708;23.288;2023-04-27T01:23:22;94769.38;;;9.40;53.09
6423;BME280;3244;42.708;23.288;2023-04-27T01:25:49;94772.75;;;9.41;53.62
6423;BME280;3244;42.708;23.288;2023-04-27T01:28:16;94777.22;;;9.34;53.52
6423;BME280;3244;42.708;23.288;2023-04-27T01:30:42;94776.00;;;9.19;53.92
6423;BME280;3244;42.708;23.288;2023-04-27T01:33:09;94775.06;;;9.22;53.37
6423;BME280;3244;42.708;23.288;2023-04-27T01:35:36;94781.34;;;9.12;53.71
6423;BME280;3244;42.708;23.288;2023-04-27T01:38:03;94792.50;;;9.06;53.92
6423;BME280;3244;42.708;23.288;2023-04-27T01:40:31;94791.66;;;9.06;54.26
6423;BME280;3244;42.708;23.288;2023-04-27T01:42:58;94789.59;;;9.17;53.87
6423;BME280;3244;42.708;23.288;2023-04-27T01:45:25;94783.59;;;9.19;53.54
6423;BME280;3244;42.708;23.288;2023-04-27T01:47:52;94794.22;;;9.06;54.05
6423;BME280;3244;42.708;23.288;2023-04-27T01:50:18;94790.78;;;9.07;53.91
6423;BME280;3244;42.708;23.288;2023-04-27T01:52:45;94788.63;;;8.95;54.14
6423;BME280;3244;42.708;23.288;2023-04-27T01:55:12;94792.16;;;8.91;54.41
6423;BME280;3244;42.708;23.288;2023-04-27T01:57:40;94789.34;;;8.72;54.91
6423;BME280;3244;42.708;23.288;2023-04-27T02:00:08;94784.97;;;8.77;56.01
6423;BME280;3244;42.708;23.288;2023-04-27T02:02:35;94785.38;;;8.65;55.03
6423;BME280;3244;42.708;23.288;2023-04-27T02:05:01;94769.78;;;8.49;55.83
6423;BME280;3244;42.708;23.288;2023-04-27T02:07:29;94793.09;;;8.60;54.74
6423;BME280;3244;42.708;23.288;2023-04-27T02:09:55;94793.00;;;8.63;54.71
6423;BME280;3244;42.708;23.288;2023-04-27T02:12:22;94789.81;;;8.57;55.02
6423;BME280;3244;42.708;23.288;2023-04-27T02:14:50;94791.34;;;8.62;55.29
6423;BME280;3244;42.708;23.288;2023-04-27T02:17:17;94799.88;;;8.60;55.70
6423;BME280;3244;42.708;23.288;2023-04-27T02:19:43;94806.63;;;8.59;54.84
6423;BME280;3244;42.708;23.288;2023-04-27T02:22:10;94786.47;;;8.56;54.85
6423;BME280;3244;42.708;23.288;2023-04-27T02:24:37;94799.53;;;8.70;54.45
6423;BME280;3244;42.708;23.288;2023-04-27T02:27:04;94796.22;;;8.68;55.18
6423;BME280;3244;42.708;23.288;2023-04-27T02:29:30;94804.69;;;8.67;55.35
6423;BME280;3244;42.708;23.288;2023-04-27T02:31:58;94806.91;;;8.78;54.81
6423;BME280;3244;42.708;23.288;2023-04-27T02:34:25;94808.47;;;8.82;54.37
6423;BME280;3244;42.708;23.288;2023-04-27T02:36:52;94805.50;;;8.68;54.56
6423;BME280;3244;42.708;23.288;2023-04-27T02:39:18;94792.28;;;8.60;54.70
6423;BME280;3244;42.708;23.288;2023-04-27T02:41:45;94809.34;;;8.81;54.05
6423;BME280;3244;42.708;23.288;2023-04-27T02:44:12;94808.28;;;8.88;53.80
6423;BME280;3244;42.708;23.288;2023-04-27T02:46:39;94809.41;;;8.79;53.93
6423;BME280;3244;42.708;23.288;2023-04-27T02:49:07;94810.97;;;8.83;54.19
6423;BME280;3244;42.708;23.288;2023-04-27T02:51:34;94807.69;;;8.80;53.85
6423;BME280;3244;42.708;23.288;2023-04-27T02:54:00;94815.34;;;8.78;54.43
6423;BME280;3244;42.708;23.288;2023-04-27T02:56:27;94807.81;;;8.75;54.55
6423;BME280;3244;42.708;23.288;2023-04-27T02:58:54;94812.63;;;8.84;54.17
6423;BME280;3244;42.708;23.288;2023-04-27T03:01:21;94816.94;;;8.81;54.19
6423;BME280;3244;42.708;23.288;2023-04-27T03:03:48;94814.06;;;8.92;53.44
6423;BME280;3244;42.708;23.288;2023-04-27T03:06:16;94815.72;;;8.93;53.72
6423;BME280;3244;42.708;23.288;2023-04-27T03:08:43;94814.91;;;8.92;53.30
6423;BME280;3244;42.708;23.288;2023-04-27T03:11:10;94816.22;;;8.77;54.11
6423;BME280;3244;42.708;23.288;2023-04-27T03:13:37;94822.31;;;8.70;53.75
6423;BME280;3244;42.708;23.288;2023-04-27T03:16:07;94833.38;;;8.68;54.17
6423;BME280;3244;42.708;23.288;2023-04-27T03:18:34;94826.56;;;8.70;53.81
6423;BME280;3244;42.708;23.288;2023-04-27T03:21:08;94826.44;;;8.74;53.83
6423;BME280;3244;42.708;23.288;2023-04-27T03:23:37;94834.16;;;8.70;54.40
6423;BME280;3244;42.708;23.288;2023-04-27T03:26:08;94829.94;;;8.70;54.61
6423;BME280;3244;42.708;23.288;2023-04-27T03:28:35;94835.81;;;8.71;54.29
6423;BME280;3244;42.708;23.288;2023-04-27T03:31:04;94832.28;;;8.76;54.62
6423;BME280;3244;42.708;23.288;2023-04-27T03:33:31;94835.34;;;8.88;53.56
6423;BME280;3244;42.708;23.288;2023-04-27T03:35:59;94833.63;;;8.88;53.80
6423;BME280;3244;42.708;23.288;2023-04-27T03:38:26;94829.56;;;8.82;53.83
6423;BME280;3244;42.708;23.288;2023-04-27T03:40:54;94836.94;;;8.90;54.65
6423;BME280;3244;42.708;23.288;2023-04-27T03:43:21;94840.25;;;8.92;53.90
6423;BME280;3244;42.708;23.288;2023-04-27T03:45:48;94853.00;;;8.91;55.00
6423;BME280;3244;42.708;23.288;2023-04-27T03:48:15;94846.63;;;8.77;54.05
6423;BME280;3244;42.708;23.288;2023-04-27T03:50:42;94845.00;;;9.03;54.13
6423;BME280;3244;42.708;23.288;2023-04-27T03:53:09;94851.41;;;8.86;53.57
6423;BME280;3244;42.708;23.288;2023-04-27T03:55:37;94844.47;;;8.92;53.78
6423;BME280;3244;42.708;23.288;2023-04-27T03:58:05;94851.59;;;9.08;53.46
6423;BME280;3244;42.708;23.288;2023-04-27T04:00:32;94865.88;;;9.11;53.10
6423;BME280;3244;42.708;23.288;2023-04-27T04:02:59;94859.63;;;9.21;53.59
6423;BME280;3244;42.708;23.288;2023-04-27T04:05:26;94860.94;;;9.33;53.17
6423;BME280;3244;42.708;23.288;2023-04-27T04:07:53;94870.06;;;9.38;53.09
6423;BME280;3244;42.708;23.288;2023-04-27T04:10:20;94871.75;;;9.39;51.88
6423;BME280;3244;42.708;23.288;2023-04-27T04:12:46;94881.09;;;9.37;52.31
6423;BME280;3244;42.708;23.288;2023-04-27T04:15:15;94885.28;;;9.38;52.46
6423;BME280;3244;42.708;23.288;2023-04-27T04:17:41;94885.91;;;9.45;52.59
6423;BME280;3244;42.708;23.288;2023-04-27T04:20:09;94885.94;;;9.43;52.24
6423;BME280;3244;42.708;23.288;2023-04-27T04:22:36;94891.72;;;9.48;52.73
6423;BME280;3244;42.708;23.288;2023-04-27T04:25:03;94881.47;;;9.51;51.29
6423;BME280;3244;42.708;23.288;2023-04-27T04:27:30;94892.91;;;9.65;52.64
6423;BME280;3244;42.708;23.288;2023-04-27T04:29:57;94884.38;;;9.66;51.81
6423;BME280;3244;42.708;23.288;2023-04-27T04:32:26;94892.00;;;10.15;51.38
6423;BME280;3244;42.708;23.288;2023-04-27T04:34:55;94899.66;;;11.09;48.69
6423;BME280;3244;42.708;23.288;2023-04-27T04:37:23;94894.34;;;11.99;46.98
6423;BME280;3244;42.708;23.288;2023-04-27T04:39:50;94893.72;;;12.72;44.60
6423;BME280;3244;42.708;23.288;2023-04-27T04:42:16;94897.41;;;13.23;43.07
6423;BME280;3244;42.708;23.288;2023-04-27T04:44:43;94901.34;;;13.65;42.64
6423;BME280;3244;42.708;23.288;2023-04-27T04:47:10;94900.19;;;14.06;41.59
6423;BME280;3244;42.708;23.288;2023-04-27T04:49:38;94905.56;;;14.35;40.48
6423;BME280;3244;42.708;23.288;2023-04-27T04:52:05;94905.75;;;14.64;39.53
6423;BME280;3244;42.708;23.288;2023-04-27T04:54:32;94903.75;;;15.34;38.52
6423;BME280;3244;42.708;23.288;2023-04-27T04:56:59;94913.41;;;15.90;37.34
6423;BME280;3244;42.708;23.288;2023-04-27T04:59:26;94901.19;;;16.54;35.82
6423;BME280;3244;42.708;23.288;2023-04-27T05:01:53;94903.19;;;16.63;35.46
6423;BME280;3244;42.708;23.288;2023-04-27T05:04:20;94892.28;;;16.31;35.79
6423;BME280;3244;42.708;23.288;2023-04-27T05:06:48;94914.25;;;15.91;36.60
6423;BME280;3244;42.708;23.288;2023-04-27T05:09:15;94916.59;;;15.80;36.87
6423;BME280;3244;42.708;23.288;2023-04-27T05:11:42;94910.16;;;15.41;37.53
6423;BME280;3244;42.708;23.288;2023-04-27T05:14:09;94913.97;;;15.50;37.09
6423;BME280;3244;42.708;23.288;2023-04-27T05:16:35;94928.69;;;15.92;36.92
6423;BME280;3244;42.708;23.288;2023-04-27T05:19:02;94921.91;;;16.21;36.38
6423;BME280;3244;42.708;23.288;2023-04-27T05:21:30;94914.22;;;16.07;36.82
6423;BME280;3244;42.708;23.288;2023-04-27T05:23:59;94921.88;;;15.77;37.08
6423;BME280;3244;42.708;23.288;2023-04-27T05:26:26;94925.38;;;15.44;37.93
6423;BME280;3244;42.708;23.288;2023-04-27T05:28:52;94925.78;;;15.52;37.86
6423;BME280;3244;42.708;23.288;2023-04-27T05:31:19;94926.28;;;16.49;35.55
6423;BME280;3244;42.708;23.288;2023-04-27T05:33:46;94924.25;;;16.10;36.43
6423;BME280;3244;42.708;23.288;2023-04-27T05:36:12;94928.25;;;15.70;37.16
6423;BME280;3244;42.708;23.288;2023-04-27T05:38:39;94935.88;;;15.24;38.08
6423;BME280;3244;42.708;23.288;2023-04-27T05:41:08;94933.13;;;14.95;38.41
6423;BME280;3244;42.708;23.288;2023-04-27T05:43:35;94949.28;;;14.80;38.90
6423;BME280;3244;42.708;23.288;2023-04-27T05:46:03;94935.00;;;14.76;38.78
6423;BME280;3244;42.708;23.288;2023-04-27T05:48:30;94944.16;;;14.80;39.22
6423;BME280;3244;42.708;23.288;2023-04-27T05:50:59;94940.34;;;14.87;39.09
6423;BME280;3244;42.708;23.288;2023-04-27T05:53:27;94928.50;;;15.18;38.63
6423;BME280;3244;42.708;23.288;2023-04-27T05:55:54;94931.00;;;15.67;37.75
6423;BME280;3244;42.708;23.288;2023-04-27T05:58:22;94934.38;;;16.85;36.69
6423;BME280;3244;42.708;23.288;2023-04-27T06:00:49;94926.50;;;20.21;30.76
6423;BME280;3244;42.708;23.288;2023-04-27T06:03:16;94920.22;;;22.34;27.03
6423;BME280;3244;42.708;23.288;2023-04-27T06:05:43;94922.91;;;23.26;25.37
6423;BME280;3244;42.708;23.288;2023-04-27T06:08:10;94909.56;;;24.38;24.08
6423;BME280;3244;42.708;23.288;2023-04-27T06:10:38;94910.66;;;24.26;24.18
6423;BME280;3244;42.708;23.288;2023-04-27T06:13:04;94924.13;;;23.22;25.11
6423;BME280;3244;42.708;23.288;2023-04-27T06:15:33;94917.09;;;22.52;25.88
6423;BME280;3244;42.708;23.288;2023-04-27T06:17:59;94918.19;;;24.00;24.31
6423;BME280;3244;42.708;23.288;2023-04-27T06:20:26;94913.22;;;25.11;22.96
6423;BME280;3244;42.708;23.288;2023-04-27T06:22:53;94908.50;;;25.79;22.26
6423;BME280;3244;42.708;23.288;2023-04-27T06:25:19;94898.50;;;26.89;21.22
6423;BME280;3244;42.708;23.288;2023-04-27T06:27:46;94902.06;;;28.55;20.12
6423;BME280;3244;42.708;23.288;2023-04-27T06:30:13;94906.16;;;28.90;19.07
6423;BME280;3244;42.708;23.288;2023-04-27T06:32:41;94906.78;;;31.07;17.79
6423;BME280;3244;42.708;23.288;2023-04-27T06:35:09;94886.16;;;33.73;15.88
6423;BME280;3244;42.708;23.288;2023-04-27T06:37:36;94883.66;;;36.21;13.85
6423;BME280;3244;42.708;23.288;2023-04-27T06:40:03;94891.34;;;37.84;13.07
6423;BME280;3244;42.708;23.288;2023-04-27T06:42:30;94886.22;;;38.95;12.55
6423;BME280;3244;42.708;23.288;2023-04-27T06:44:56;94882.06;;;39.34;12.06
6423;BME280;3244;42.708;23.288;2023-04-27T06:47:23;94881.44;;;40.24;11.28
6423;BME280;3244;42.708;23.288;2023-04-27T06:49:52;94885.38;;;40.33;10.86
6423;BME280;3244;42.708;23.288;2023-04-27T06:52:18;94884.34;;;40.23;11.45
6423;BME280;3244;42.708;23.288;2023-04-27T06:54:45;94885.06;;;40.18;10.86
6423;BME280;3244;42.708;23.288;2023-04-27T06:57:12;94878.84;;;40.58;11.16
6423;BME280;3244;42.708;23.288;2023-04-27T06:59:38;94876.94;;;41.08;11.03
6423;BME280;3244;42.708;23.288;2023-04-27T07:02:06;94869.28;;;41.29;10.68
6423;BME280;3244;42.708;23.288;2023-04-27T07:04:33;94868.81;;;41.37;10.12
6423;BME280;3244;42.708;23.288;2023-04-27T07:07:02;94875.78;;;41.38;10.49
6423;BME280;3244;42.708;23.288;2023-04-27T07:09:28;94870.59;;;42.19;9.79
6423;BME280;3244;42.708;23.288;2023-04-27T07:11:55;94871.03;;;42.96;9.84
6423;BME280;3244;42.708;23.288;2023-04-27T07:14:23;94872.63;;;42.97;9.72
6423;BME280;3244;42.708;23.288;2023-04-27T07:16:50;94879.34;;;42.68;9.93
6423;BME280;3244;42.708;23.288;2023-04-27T07:19:17;94873.53;;;42.17;9.81
6423;BME280;3244;42.708;23.288;2023-04-27T07:21:43;94866.44;;;41.57;10.29
6423;BME280;3244;42.708;23.288;2023-04-27T07:24:11;94866.47;;;41.19;10.04
6423;BME280;3244;42.708;23.288;2023-04-27T07:26:38;94867.19;;;42.23;10.31
6423;BME280;3244;42.708;23.288;2023-04-27T07:29:05;94869.06;;;41.35;10.02
6423;BME280;3244;42.708;23.288;2023-04-27T07:31:33;94870.38;;;39.47;10.62
6423;BME280;3244;42.708;23.288;2023-04-27T07:34:00;94865.78;;;38.84;11.04
6423;BME280;3244;42.708;23.288;2023-04-27T07:36:27;94870.31;;;36.66;12.19
6423;BME280;3244;42.708;23.288;2023-04-27T07:38:54;94875.88;;;33.31;13.97
6423;BME280;3244;42.708;23.288;2023-04-27T07:41:24;94886.69;;;30.25;15.55
6423;BME280;3244;42.708;23.288;2023-04-27T07:43:50;94888.84;;;28.16;17.40
6423;BME280;3244;42.708;23.288;2023-04-27T07:46:17;94889.06;;;27.72;17.84
6423;BME280;3244;42.708;23.288;2023-04-27T07:48:44;94880.78;;;28.74;17.55
6423;BME280;3244;42.708;23.288;2023-04-27T07:51:10;94879.28;;;30.28;16.47
6423;BME280;3244;42.708;23.288;2023-04-27T07:53:40;94868.50;;;32.85;14.68
6423;BME280;3244;42.708;23.288;2023-04-27T07:56:08;94880.66;;;34.95;13.05
6423;BME280;3244;42.708;23.288;2023-04-27T07:58:36;94870.31;;;36.66;12.57
6423;BME280;3244;42.708;23.288;2023-04-27T08:01:03;94880.59;;;35.22;13.01
6423;BME280;3244;42.708;23.288;2023-04-27T08:03:30;94878.88;;;32.01;14.54
6423;BME280;3244;42.708;23.288;2023-04-27T08:05:57;94877.25;;;30.76;15.73
6423;BME280;3244;42.708;23.288;2023-04-27T08:08:23;94884.22;;;30.98;15.64
6423;BME280;3244;42.708;23.288;2023-04-27T08:10:50;94882.19;;;29.88;16.04
6423;BME280;3244;42.708;23.288;2023-04-27T08:13:17;94885.38;;;29.44;17.10
6423;BME280;3244;42.708;23.288;2023-04-27T08:15:45;94877.53;;;30.21;16.99
6423;BME280;3244;42.708;23.288;2023-04-27T08:18:11;94882.66;;;33.19;14.81
6423;BME280;3244;42.708;23.288;2023-04-27T08:20:38;94873.75;;;35.01;14.03
6423;BME280;3244;42.708;23.288;2023-04-27T08:23:05;94872.44;;;36.32;13.10
6423;BME280;3244;42.708;23.288;2023-04-27T08:25:32;94869.25;;;35.86;12.31
6423;BME280;3244;42.708;23.288;2023-04-27T08:27:58;94874.31;;;36.19;13.13
6423;BME280;3244;42.708;23.288;2023-04-27T08:30:25;94873.47;;;38.09;11.72
6423;BME280;3244;42.708;23.288;2023-04-27T08:32:53;94860.03;;;39.62;10.99
6423;BME280;3244;42.708;23.288;2023-04-27T08:35:20;94853.00;;;39.85;10.36
6423;BME280;3244;42.708;23.288;2023-04-27T08:37:47;94868.41;;;36.98;11.76
6423;BME280;3244;42.708;23.288;2023-04-27T08:40:14;94874.31;;;33.50;14.24
6423;BME280;3244;42.708;23.288;2023-04-27T08:42:53;94872.13;;;31.92;15.77
6423;BME280;3244;42.708;23.288;2023-04-27T08:45:21;94882.78;;;31.55;15.50
6423;BME280;3244;42.708;23.288;2023-04-27T08:47:47;94879.81;;;33.13;14.99
6423;BME280;3244;42.708;23.288;2023-04-27T08:50:16;94868.34;;;35.98;13.00
6423;BME280;3244;42.708;23.288;2023-04-27T08:52:43;94872.59;;;38.57;11.88
6423;BME280;3244;42.708;23.288;2023-04-27T08:55:10;94863.94;;;39.20;11.30
6423;BME280;3244;42.708;23.288;2023-04-27T08:57:37;94869.47;;;38.18;11.27
6423;BME280;3244;42.708;23.288;2023-04-27T09:00:05;94867.44;;;36.42;12.58
6423;BME280;3244;42.708;23.288;2023-04-27T09:02:43;94869.63;;;35.38;13.26
6423;BME280;3244;42.708;23.288;2023-04-27T09:05:16;94867.22;;;34.04;13.66
6423;BME280;3244;42.708;23.288;2023-04-27T09:07:54;94856.91;;;34.75;13.70
6423;BME280;3244;42.708;23.288;2023-04-27T09:10:22;94855.00;;;35.16;13.05
6423;BME280;3244;42.708;23.288;2023-04-27T09:12:59;94868.66;;;33.53;14.19
6423;BME280;3244;42.708;23.288;2023-04-27T09:15:26;94860.38;;;32.59;14.67
6423;BME280;3244;42.708;23.288;2023-04-27T09:17:54;94860.75;;;32.56;14.46
6423;BME280;3244;42.708;23.288;2023-04-27T09:20:23;94848.78;;;32.04;14.86
6423;BME280;3244;42.708;23.288;2023-04-27T09:22:52;94861.81;;;29.36;16.51
6423;BME280;3244;42.708;23.288;2023-04-27T09:25:25;94863.75;;;27.15;18.96
6423;BME280;3244;42.708;23.288;2023-04-27T09:27:52;94864.34;;;26.49;19.53
6423;BME280;3244;42.708;23.288;2023-04-27T09:30:19;94858.78;;;26.43;19.24
6423;BME280;3244;42.708;23.288;2023-04-27T09:32:51;94860.16;;;26.56;19.27
6423;BME280;3244;42.708;23.288;2023-04-27T09:35:21;94863.94;;;25.64;20.62
6423;BME280;3244;42.708;23.288;2023-04-27T09:37:50;94855.34;;;24.72;21.05
6423;BME280;3244;42.708;23.288;2023-04-27T09:40:18;94855.38;;;24.53;21.71
6423;BME280;3244;42.708;23.288;2023-04-27T09:42:48;94851.09;;;23.86;21.99
6423;BME280;3244;42.708;23.288;2023-04-27T09:45:16;94858.84;;;22.97;22.78
6423;BME280;3244;42.708;23.288;2023-04-27T09:47:44;94858.72;;;22.06;23.62
6423;BME280;3244;42.708;23.288;2023-04-27T09:50:12;94853.25;;;21.56;24.20
6423;BME280;3244;42.708;23.288;2023-04-27T09:52:39;94850.13;;;21.42;24.91
6423;BME280;3244;42.708;23.288;2023-04-27T09:55:09;94846.41;;;21.66;24.63
6423;BME280;3244;42.708;23.288;2023-04-27T09:57:41;94849.91;;;21.77;24.33
6423;BME280;3244;42.708;23.288;2023-04-27T10:00:22;94851.69;;;21.33;24.99
6423;BME280;3244;42.708;23.288;2023-04-27T10:03:01;94858.09;;;20.73;26.17
6423;BME280;3244;42.708;23.288;2023-04-27T10:05:49;94842.50;;;20.17;25.94
6423;BME280;3244;42.708;23.288;2023-04-27T10:08:22;94852.19;;;20.37;25.96
6423;BME280;3244;42.708;23.288;2023-04-27T10:10:52;94841.75;;;20.61;25.56
6423;BME280;3244;42.708;23.288;2023-04-27T10:13:22;94846.69;;;20.76;25.73
6423;BME280;3244;42.708;23.288;2023-04-27T10:15:50;94841.97;;;20.92;24.97
6423;BME280;3244;42.708;23.288;2023-04-27T10:18:28;94847.19;;;21.46;25.12
6423;BME280;3244;42.708;23.288;2023-04-27T10:20:55;94851.84;;;22.16;24.20
6423;BME280;3244;42.708;23.288;2023-04-27T10:23:23;94838.16;;;22.56;23.66
6423;BME280;3244;42.708;23.288;2023-04-27T10:25:52;94841.00;;;22.53;23.29
6423;BME280;3244;42.708;23.288;2023-04-27T10:28:20;94840.81;;;22.14;23.08
6423;BME280;3244;42.708;23.288;2023-04-27T10:30:47;94836.81;;;21.78;23.81
6423;BME280;3244;42.708;23.288;2023-04-27T10:33:16;94848.38;;;21.42;24.42
6423;BME280;3244;42.708;23.288;2023-04-27T10:35:51;94840.50;;;21.32;24.68
6423;BME280;3244;42.708;23.288;2023-04-27T10:38:19;94843.31;;;21.52;24.67
6423;BME280;3244;42.708;23.288;2023-04-27T10:40:55;94842.53;;;21.61;24.34
6423;BME280;3244;42.708;23.288;2023-04-27T10:43:24;94839.22;;;21.70;24.15
6423;BME280;3244;42.708;23.288;2023-04-27T10:45:52;94833.63;;;21.86;24.13
6423;BME280;3244;42.708;23.288;2023-04-27T10:48:19;94845.03;;;21.83;23.68
6423;BME280;3244;42.708;23.288;2023-04-27T10:50:46;94833.38;;;21.57;23.73
6423;BME280;3244;42.708;23.288;2023-04-27T10:53:13;94844.63;;;21.35;23.86
6423;BME280;3244;42.708;23.288;2023-04-27T10:55:40;94843.47;;;21.17;24.13
6423;BME280;3244;42.708;23.288;2023-04-27T10:58:08;94839.47;;;21.13;23.99
6423;BME280;3244;42.708;23.288;2023-04-27T11:00:38;94834.97;;;20.71;24.34
6423;BME280;3244;42.708;23.288;2023-04-27T11:03:10;94845.63;;;20.56;24.95
6423;BME280;3244;42.708;23.288;2023-04-27T11:05:39;94842.69;;;20.60;24.80
6423;BME280;3244;42.708;23.288;2023-04-27T11:08:08;94833.53;;;20.45;24.54
6423;BME280;3244;42.708;23.288;2023-04-27T11:10:38;94839.00;;;20.18;25.58
6423;BME280;3244;42.708;23.288;2023-04-27T11:13:08;94830.97;;;19.99;25.87
6423;BME280;3244;42.708;23.288;2023-04-27T11:15:46;94833.88;;;19.94;26.39
6423;BME280;3244;42.708;23.288;2023-04-27T11:18:14;94843.28;;;20.07;25.81
6423;BME280;3244;42.708;23.288;2023-04-27T11:20:42;94839.69;;;20.20;25.82
6423;BME280;3244;42.708;23.288;2023-04-27T11:23:09;94850.63;;;20.24;26.02
6423;BME280;3244;42.708;23.288;2023-04-27T11:25:36;94847.22;;;20.34;25.64
6423;BME280;3244;42.708;23.288;2023-04-27T11:28:03;94846.34;;;20.47;25.86
6423;BME280;3244;42.708;23.288;2023-04-27T11:30:31;94852.31;;;20.47;25.55
6423;BME280;3244;42.708;23.288;2023-04-27T11:33:06;94848.44;;;20.42;25.59
6423;BME280;3244;42.708;23.288;2023-04-27T11:35:33;94857.16;;;20.17;26.05
6423;BME280;3244;42.708;23.288;2023-04-27T11:38:01;94851.91;;;19.83;26.25
6423;BME280;3244;42.708;23.288;2023-04-27T11:40:28;94861.06;;;19.52;26.87
6423;BME280;3244;42.708;23.288;2023-04-27T11:42:58;94853.44;;;19.38;27.10
6423;BME280;3244;42.708;23.288;2023-04-27T11:45:28;94845.66;;;19.27;27.23
6423;BME280;3244;42.708;23.288;2023-04-27T11:47:58;94852.19;;;19.20;27.16
6423;BME280;3244;42.708;23.288;2023-04-27T11:50:26;94853.63;;;19.11;27.29
6423;BME280;3244;42.708;23.288;2023-04-27T11:52:53;94855.97;;;18.90;27.81
6423;BME280;3244;42.708;23.288;2023-04-27T11:55:20;94851.69;;;18.78;27.89
6423;BME280;3244;42.708;23.288;2023-04-27T11:57:55;94860.31;;;18.52;28.13
6423;BME280;3244;42.708;23.288;2023-04-27T12:00:22;94855.06;;;18.53;28.25
6423;BME280;3244;42.708;23.288;2023-04-27T12:02:49;94847.94;;;18.57;28.46
6423;BME280;3244;42.708;23.288;2023-04-27T12:05:18;94852.66;;;18.88;27.89
6423;BME280;3244;42.708;23.288;2023-04-27T12:07:45;94858.84;;;18.98;27.82
6423;BME280;3244;42.708;23.288;2023-04-27T12:10:12;94852.53;;;19.02;27.37
6423;BME280;3244;42.708;23.288;2023-04-27T12:12:38;94861.00;;;19.05;27.71
6423;BME280;3244;42.708;23.288;2023-04-27T12:15:07;94859.94;;;19.31;27.38
6423;BME280;3244;42.708;23.288;2023-04-27T12:17:33;94858.38;;;19.17;27.35
6423;BME280;3244;42.708;23.288;2023-04-27T12:20:00;94858.75;;;19.24;27.02
6423;BME280;3244;42.708;23.288;2023-04-27T12:22:29;94862.09;;;19.37;27.01
6423;BME280;3244;42.708;23.288;2023-04-27T12:24:55;94862.38;;;19.45;27.00
6423;BME280;3244;42.708;23.288;2023-04-27T12:27:22;94862.69;;;19.53;26.93
6423;BME280;3244;42.708;23.288;2023-04-27T12:29:50;94865.88;;;19.44;26.79
6423;BME280;3244;42.708;23.288;2023-04-27T12:32:18;94875.59;;;19.41;27.39
6423;BME280;3244;42.708;23.288;2023-04-27T12:34:45;94869.59;;;19.16;27.10
6423;BME280;3244;42.708;23.288;2023-04-27T12:37:12;94871.00;;;18.96;27.49
6423;BME280;3244;42.708;23.288;2023-04-27T12:39:40;94872.63;;;18.97;27.61
6423;BME280;3244;42.708;23.288;2023-04-27T12:42:07;94869.97;;;18.86;27.55
6423;BME280;3244;42.708;23.288;2023-04-27T12:44:34;94865.69;;;19.11;27.83
6423;BME280;3244;42.708;23.288;2023-04-27T12:47:00;94864.34;;;19.18;27.49
6423;BME280;3244;42.708;23.288;2023-04-27T12:49:28;94867.84;;;19.17;27.59
6423;BME280;3244;42.708;23.288;2023-04-27T12:51:55;94865.25;;;19.17;27.27
6423;BME280;3244;42.708;23.288;2023-04-27T12:54:22;94872.69;;;19.21;27.24
6423;BME280;3244;42.708;23.288;2023-04-27T12:56:50;94867.84;;;19.17;27.19
6423;BME280;3244;42.708;23.288;2023-04-27T12:59:17;94868.25;;;19.23;27.10
6423;BME280;3244;42.708;23.288;2023-04-27T13:01:43;94855.69;;;19.19;27.39
6423;BME280;3244;42.708;23.288;2023-04-27T13:04:16;94864.69;;;19.00;27.39
6423;BME280;3244;42.708;23.288;2023-04-27T13:06:43;94870.16;;;18.96;27.66
6423;BME280;3244;42.708;23.288;2023-04-27T13:09:10;94863.38;;;18.95;27.66
6423;BME280;3244;42.708;23.288;2023-04-27T13:11:37;94864.63;;;18.89;27.89
6423;BME280;3244;42.708;23.288;2023-04-27T13:14:06;94860.31;;;18.77;27.94
6423;BME280;3244;42.708;23.288;2023-04-27T13:16:32;94866.41;;;18.63;28.28